Happy Valentine's Day! 

Flight Track Log - Related Links

Times and Time Zones

All times are in EDT time to prevent confusion due to time zone crossing. See the UAL1433 flight status page for this flight to view local times or setup timezone preferences in your user account.


Time Position Orientation Groundspeed Altitude Reporting Facility
EDT Latitude Longitude Course Direction KTS MPH feet Rate Location/Type
Sat 08:30:43 AM 29.9750 -95.3630 264° West 187 215 1,500  Level FlightAware ADS-B
Sat 08:31:13 AM 29.9730 -95.3870 265° West 187 215 1,500 1,588 Level FlightAware ADS-B
Sat 08:31:17 AM 29.9950 -95.3860 North 208 239 2,400 4,222 Climbing FlightAware ADS-B
Sat 08:31:40 AM 30.0160 -95.3850 North 218 251 3,400 2,294 Climbing FlightAware ADS-B
Sat 08:31:51 AM 30.0290 -95.3840 North 234 269 3,700 667 Climbing FlightAware ADS-B
Sat 08:32:25 AM 30.0650 -95.3810 North 244 281 3,900 1,283 Climbing FlightAware ADS-B
Sat 08:34:44 AM 30.2210 -95.3800 330° Northwest 247 284 7,400 1,671 Climbing FlightAware ADS-B
Sat 08:35:00 AM 30.3264 -95.5342 330° Northwest  Level FlightAware Approximate
Sat 08:35:03 AM 30.2400 -95.3960 324° Northwest 252 290 8,300  Level FlightAware ADS-B
Sat 08:35:20 AM 30.2570 -95.4090 327° Northwest 259 298 9,200 2,757 Climbing FlightAware ADS-B
Sat 08:35:40 AM 30.2770 -95.4250 325° Northwest 271 312 10,000 1,759 Climbing FlightAware ADS-B
Sat 08:36:18 AM 30.3180 -95.4640 321° Northwest 315 362 10,900 2,174 Climbing FlightAware ADS-B
Sat 08:36:49 AM 30.3540 -95.4950 323° Northwest 321 369 12,500 1,906 Climbing FlightAware ADS-B
Sat 08:37:43 AM 30.4130 -95.5460 323° Northwest 329 379 13,600 2,629 Climbing FlightAware ADS-B
Sat 08:38:18 AM 30.4630 -95.5890 323° Northwest 341 392 16,400 3,672 Climbing FlightAware ADS-B
Sat 08:38:50 AM 30.5040 -95.6250 323° Northwest 351 404 17,700 2,435 Climbing FlightAware ADS-B
Sat 08:39:27 AM 30.5530 -95.6610 328° Northwest 362 417 19,200 2,382 Climbing FlightAware ADS-B
Sat 08:39:58 AM 30.6030 -95.6880 335° Northwest 370 426 20,400 2,000 Climbing FlightAware ADS-B
Sat 08:40:36 AM 30.6650 -95.7210 335° Northwest 384 442 21,500 1,807 Climbing FlightAware ADS-B
Sat 08:41:21 AM 30.7370 -95.7600 335° Northwest 397 457 22,900 1,911 Climbing FlightAware ADS-B
Sat 08:42:51 AM 30.8870 -95.8400 335° Northwest 403 464 25,800 1,691 Climbing FlightAware ADS-B
Sat 08:43:50 AM 30.9860 -95.8940 335° Northwest 421 484 27,100 1,576 Climbing FlightAware ADS-B
Sat 08:44:30 AM 31.0650 -95.9360 336° Northwest 419 482 28,400 1,667 Climbing FlightAware ADS-B
Sat 08:45:02 AM 31.1220 -95.9660 336° Northwest 426 490 29,100 1,130 Climbing FlightAware ADS-B
Sat 08:45:39 AM 31.1910 -95.9940 341° North 443 510 29,700 1,017 Climbing FlightAware ADS-B
Sat 08:46:01 AM 31.2340 -96.0110 341° North 449 517 30,100 929 Climbing FlightAware ADS-B
Sat 08:47:03 AM 31.3590 -96.0590 342° North 463 533 31,000 1,032 Climbing FlightAware ADS-B
Sat 08:47:34 AM 31.4240 -96.0850 341° North 463 533 31,700 1,629 Climbing FlightAware ADS-B
Sat 08:48:13 AM 31.4990 -96.1140 342° North 452 520 32,900 1,296 Climbing FlightAware ADS-B
Sat 08:49:39 AM 31.6720 -96.1810 342° North 456 525 34,400 1,024 Climbing FlightAware ADS-B
Sat 08:50:16 AM 31.7470 -96.2100 342° North 459 528 35,000 1,040 Climbing FlightAware ADS-B
Sat 08:50:54 AM 31.8240 -96.2400 342° North 456 525 35,700 938 Climbing FlightAware ADS-B
Sat 08:51:20 AM 31.8750 -96.2600 342° North 452 520 36,000 310 Climbing FlightAware ADS-B
Sat 08:51:52 AM 31.9380 -96.2850 341° North 449 517 36,000  Level FlightAware ADS-B
Sat 08:52:34 AM 32.0210 -96.3180 341° North 448 516 36,000  Level FlightAware ADS-B
Sat 08:53:06 AM 32.0850 -96.3440 341° North 447 514 36,000  Level FlightAware ADS-B
Sat 08:53:42 AM 32.1540 -96.3720 341° North 442 509 36,000  Level FlightAware ADS-B
Sat 08:54:10 AM 32.2030 -96.4040 331° Northwest 418 481 36,000  Level FlightAware ADS-B
Sat 08:54:46 AM 32.2540 -96.4570 319° Northwest 403 464 36,000  Level FlightAware ADS-B
Sat 08:55:18 AM 32.2960 -96.5050 316° Northwest 404 465 36,000  Level FlightAware ADS-B
Sat 08:55:54 AM 32.3450 -96.5600 317° Northwest 407 468 36,000  Level FlightAware ADS-B
Sat 08:56:26 AM 32.3890 -96.6100 316° Northwest 408 470 36,000  Level FlightAware ADS-B
Sat 08:57:04 AM 32.4390 -96.6670 316° Northwest 409 471 36,000  Level FlightAware ADS-B
Sat 08:57:28 AM 32.4740 -96.7050 318° Northwest 408 470 36,000  Level FlightAware ADS-B
Sat 08:57:53 AM 32.4938 -96.7284 315° West 409 471 36,000  Level FlightAware ADS-B
Sat 08:58:30 AM 32.5389 -96.7795 316° Northwest 409 471 36,000  Level FlightAware ADS-B
Sat 08:59:02 AM 32.5903 -96.8378 316° Northwest 409 471 36,000  Level FlightAware ADS-B
Sat 08:59:43 AM 32.6478 -96.9032 316° Northwest 410 472 36,000  Level FlightAware ADS-B
Sat 09:00:23 AM 32.7107 -96.9749 316° Northwest 410 472 36,000  Level FlightAware ADS-B
Sat 09:01:04 AM 32.7564 -97.0271 316° Northwest 410 472 36,000  Level FlightAware ADS-B
Sat 09:01:37 AM 32.8150 -97.0940 316° Northwest 408 470 36,000  Level FlightAware ADS-B
Sat 09:01:41 AM 32.8068 -97.0847 136° Southeast 408 470 36,000  Level FlightAware ADS-B
Sat 09:02:13 AM 32.8531 -97.1377 316° Northwest 407 468 36,000  Level FlightAware ADS-B
Sat 09:02:54 AM 32.9073 -97.2019 315° West 403 464 36,000  Level FlightAware ADS-B
Sat 09:03:31 AM 32.9500 -97.2560 313° West 402 463 36,000  Level FlightAware ADS-B
Sat 09:04:03 AM 32.9935 -97.3113 313° West 400 460 36,000  Level FlightAware ADS-B
Sat 09:04:44 AM 33.0467 -97.3789 313° West 399 459 36,000  Level FlightAware ADS-B
Sat 09:05:25 AM 33.1007 -97.4472 313° West 396 456 36,000  Level FlightAware ADS-B
Sat 09:06:02 AM 33.1440 -97.5021 313° West 395 455 36,000  Level FlightAware ADS-B
Sat 09:06:43 AM 33.1935 -97.5654 313° West 394 453 36,000  Level FlightAware ADS-B
Sat 09:07:23 AM 33.2467 -97.6337 313° West 398 458 36,000  Level FlightAware ADS-B
Sat 09:08:04 AM 33.2988 -97.7005 313° West 400 460 36,000  Level FlightAware ADS-B
Sat 09:08:34 AM 33.3420 -97.7560 313° West 399 459 36,000  Level FlightAware ADS-B
Sat 09:08:41 AM 33.3437 -97.7579 317° Northwest 399 459 36,000  Level FlightAware ADS-B
Sat 09:09:49 AM 33.4390 -97.8800 313° West 398 458 36,000  Level FlightAware ADS-B
Sat 09:10:21 AM 33.4790 -97.9320 313° West 401 461 36,000  Level FlightAware ADS-B
Sat 09:10:54 AM 33.5190 -97.9830 313° West 404 465 36,000  Level FlightAware ADS-B
Sat 09:11:36 AM 33.5640 -98.0410 313° West 403 464 36,000  Level FlightAware ADS-B
Sat 09:12:08 AM 33.6130 -98.1050 313° West 403 464 36,000  Level FlightAware ADS-B
Sat 09:12:43 AM 33.6590 -98.1650 313° West 403 464 36,000  Level FlightAware ADS-B
Sat 09:13:21 AM 33.7070 -98.2270 313° West 404 465 36,000  Level FlightAware ADS-B
Sat 09:13:52 AM 33.7460 -98.2770 313° West 404 465 36,000  Level FlightAware ADS-B
Sat 09:14:28 AM 33.7920 -98.3380 312° West 403 464 36,000  Level FlightAware ADS-B
Sat 09:15:05 AM 33.8390 -98.3990 313° West 404 465 36,000  Level FlightAware ADS-B
Sat 09:15:35 AM 33.8770 -98.4490 312° West 403 464 36,000  Level FlightAware ADS-B
Sat 09:16:14 AM 33.9260 -98.5130 313° West 403 464 36,000  Level FlightAware ADS-B
Sat 09:16:49 AM 33.9680 -98.5680 313° West 404 465 36,000  Level FlightAware ADS-B
Sat 09:17:22 AM 34.0050 -98.6280 307° West 393 452 36,000  Level FlightAware ADS-B
Sat 09:17:58 AM 34.0370 -98.6890 302° West 393 452 36,000  Level FlightAware ADS-B
Sat 09:18:32 AM 34.0710 -98.7570 301° West 394 453 36,000  Level FlightAware ADS-B
Sat 09:19:11 AM 34.1050 -98.8240 302° West 393 452 36,000  Level FlightAware ADS-B
Sat 09:19:43 AM 34.1400 -98.8910 302° West 392 451 36,000  Level FlightAware ADS-B
Sat 09:20:18 AM 34.1710 -98.9510 302° West 391 450 36,000  Level FlightAware ADS-B
Sat 09:20:54 AM 34.2070 -99.0210 302° West 390 449 36,000  Level FlightAware ADS-B
Sat 09:21:26 AM 34.2380 -99.0830 301° West 389 448 36,000  Level FlightAware ADS-B
Sat 09:22:01 AM 34.2710 -99.1470 302° West 389 448 36,000  Level FlightAware ADS-B
Sat 09:22:36 AM 34.3030 -99.2120 301° West 389 448 36,000  Level FlightAware ADS-B
Sat 09:23:13 AM 34.3360 -99.2770 302° West 389 448 36,000  Level FlightAware ADS-B
Sat 09:23:49 AM 34.3730 -99.3490 302° West 388 447 36,000  Level FlightAware ADS-B
Sat 09:24:24 AM 34.4050 -99.4130 301° West 387 445 36,000  Level FlightAware ADS-B
Sat 09:24:59 AM 34.4360 -99.4740 302° West 387 445 36,000  Level FlightAware ADS-B
Sat 09:25:31 AM 34.4670 -99.5360 301° West 388 447 36,000  Level FlightAware ADS-B
Sat 09:26:09 AM 34.5020 -99.6050 302° West 391 450 36,000  Level FlightAware ADS-B
Sat 09:26:45 AM 34.5360 -99.6740 301° West 391 450 36,000  Level FlightAware ADS-B
Sat 09:27:19 AM 34.5670 -99.7360 301° West 391 450 36,000  Level FlightAware ADS-B
Sat 09:27:52 AM 34.6000 -99.8010 302° West 392 451 36,000  Level FlightAware ADS-B
Sat 09:28:29 AM 34.6340 -99.8700 301° West 395 455 36,000  Level FlightAware ADS-B
Sat 09:29:06 AM 34.6690 -99.9410 301° West 397 457 36,000  Level FlightAware ADS-B
Sat 09:29:38 AM 34.7000 -100.0030 301° West 398 458 36,000  Level FlightAware ADS-B
Sat 09:30:14 AM 34.7310 -100.0650 301° West 400 460 36,000  Level FlightAware ADS-B
Sat 09:30:50 AM 34.7680 -100.1400 301° West 399 459 36,000  Level FlightAware ADS-B
Sat 09:31:25 AM 34.8010 -100.2070 301° West 399 459 36,000  Level FlightAware ADS-B
Sat 09:31:57 AM 34.8310 -100.2680 301° West 399 459 36,000  Level FlightAware ADS-B
Sat 09:32:34 AM 34.8670 -100.3420 301° West 399 459 36,000  Level FlightAware ADS-B
Sat 09:33:08 AM 34.9000 -100.4080 301° West 397 457 36,000  Level FlightAware ADS-B
Sat 09:33:46 AM 34.9350 -100.4790 301° West 396 456 36,000  Level FlightAware ADS-B
Sat 09:34:15 AM 34.9590 -100.5290 300° West 396 456 36,000  Level FlightAware ADS-B
Sat 09:34:54 AM 34.9980 -100.6090 301° West 394 453 36,000  Level FlightAware ADS-B
Sat 09:35:29 AM 35.0300 -100.6760 300° West 393 452 36,000  Level FlightAware ADS-B
Sat 09:36:06 AM 35.0650 -100.7480 301° West 392 451 36,000  Level FlightAware ADS-B
Sat 09:36:36 AM 35.0930 -100.8040 301° West 391 450 36,000  Level FlightAware ADS-B
Sat 09:37:10 AM 35.1250 -100.8700 301° West 391 450 36,000  Level FlightAware ADS-B
Sat 09:37:50 AM 35.1600 -100.9440 300° West 391 450 36,000  Level FlightAware ADS-B
Sat 09:38:25 AM 35.1930 -101.0110 301° West 391 450 36,000  Level FlightAware ADS-B
Sat 09:39:01 AM 35.2260 -101.0800 300° West 392 451 36,000  Level FlightAware ADS-B
Sat 09:39:33 AM 35.2560 -101.1430 300° West 393 452 36,000  Level FlightAware ADS-B
Sat 09:40:09 AM 35.2880 -101.2100 300° West 395 455 36,000  Level FlightAware ADS-B
Sat 09:40:43 AM 35.3190 -101.2760 300° West 397 457 36,000  Level FlightAware ADS-B
Sat 09:41:16 AM 35.3500 -101.3410 300° West 397 457 36,000  Level FlightAware ADS-B
Sat 09:41:55 AM 35.3870 -101.4160 301° West 398 458 36,000  Level FlightAware ADS-B
Sat 09:42:28 AM 35.4170 -101.4800 300° West 397 457 36,000  Level FlightAware ADS-B
Sat 09:43:03 AM 35.4490 -101.5470 300° West 397 457 36,000  Level FlightAware ADS-B
Sat 09:43:39 AM 35.4830 -101.6190 300° West 396 456 36,000  Level FlightAware ADS-B
Sat 09:44:16 AM 35.5170 -101.6910 300° West 396 456 36,000  Level FlightAware ADS-B
Sat 09:44:47 AM 35.5450 -101.7500 300° West 396 456 36,000  Level FlightAware ADS-B
Sat 09:45:23 AM 35.5780 -101.8200 300° West 395 455 36,000  Level FlightAware ADS-B
Sat 09:46:00 AM 35.6120 -101.8930 300° West 397 457 36,000  Level FlightAware ADS-B
Sat 09:46:35 AM 35.6440 -101.9600 300° West 399 459 36,000  Level FlightAware ADS-B
Sat 09:47:08 AM 35.6740 -102.0250 300° West 400 460 36,000  Level FlightAware ADS-B
Sat 09:47:41 AM 35.7050 -102.0920 300° West 400 460 36,000  Level FlightAware ADS-B
Sat 09:48:16 AM 35.7370 -102.1600 300° West 401 461 36,000  Level FlightAware ADS-B
Sat 09:48:54 AM 35.7720 -102.2350 300° West 401 461 36,000  Level FlightAware ADS-B
Sat 09:49:28 AM 35.8030 -102.3030 299° West 402 463 36,000  Level FlightAware ADS-B
Sat 09:50:05 AM 35.8380 -102.3770 300° West 401 461 36,000  Level FlightAware ADS-B
Sat 09:50:41 AM 35.8710 -102.4480 300° West 399 459 36,000  Level FlightAware ADS-B
Sat 09:51:12 AM 35.8990 -102.5080 300° West 397 457 36,000  Level FlightAware ADS-B
Sat 09:51:47 AM 35.9300 -102.5770 299° West 396 456 36,000  Level FlightAware ADS-B
Sat 09:52:25 AM 35.9650 -102.6530 300° West 395 455 36,000  Level FlightAware ADS-B
Sat 09:52:59 AM 35.9940 -102.7170 299° West 395 455 36,000  Level FlightAware ADS-B
Sat 09:53:35 AM 36.0270 -102.7890 300° West 396 456 36,000  Level FlightAware ADS-B
Sat 09:54:08 AM 36.0570 -102.8540 300° West 396 456 36,000  Level FlightAware ADS-B
Sat 09:54:44 AM 36.0890 -102.9230 300° West 395 455 36,000  Level FlightAware ADS-B
Sat 09:55:16 AM 36.1180 -102.9890 299° West 396 456 36,000  Level FlightAware ADS-B
Sat 09:55:54 AM 36.1500 -103.0580 300° West 397 457 36,000  Level FlightAware ADS-B
Sat 09:56:30 AM 36.1850 -103.1360 299° West 399 459 36,000  Level FlightAware ADS-B
Sat 09:57:05 AM 36.2150 -103.2030 299° West 398 458 36,000  Level FlightAware ADS-B
Sat 09:57:38 AM 36.2450 -103.2700 299° West 400 460 36,000  Level FlightAware ADS-B
Sat 09:58:14 AM 36.2780 -103.3420 300° West 399 459 36,000  Level FlightAware ADS-B
Sat 09:58:47 AM 36.3070 -103.4080 299° West 402 463 36,000  Level FlightAware ADS-B
Sat 09:59:26 AM 36.3420 -103.4850 299° West 399 459 36,000  Level FlightAware ADS-B
Sat 09:59:58 AM 36.3710 -103.5510 299° West 401 461 36,000  Level FlightAware ADS-B
Sat 10:00:35 AM 36.4050 -103.6260 299° West 399 459 36,000  Level FlightAware ADS-B
Sat 10:01:07 AM 36.4330 -103.6900 299° West 401 461 36,000  Level FlightAware ADS-B
Sat 10:01:44 AM 36.4660 -103.7650 299° West 401 461 36,000  Level FlightAware ADS-B
Sat 10:02:19 AM 36.4980 -103.8360 299° West 403 464 36,000  Level FlightAware ADS-B
Sat 10:02:49 AM 36.5240 -103.8940 299° West 405 466 36,000  Level FlightAware ADS-B
Sat 10:03:28 AM 36.5600 -103.9750 299° West 405 466 36,000  Level FlightAware ADS-B
Sat 10:04:04 AM 36.5910 -104.0470 298° West 405 466 36,000  Level FlightAware ADS-B
Sat 10:04:39 AM 36.6230 -104.1180 299° West 404 465 36,000  Level FlightAware ADS-B
Sat 10:05:12 AM 36.6530 -104.1880 298° West 405 466 36,000  Level FlightAware ADS-B
Sat 10:05:49 AM 36.6860 -104.2630 299° West 404 465 36,000  Level FlightAware ADS-B
Sat 10:06:25 AM 36.7160 -104.3320 298° West 404 465 36,000  Level FlightAware ADS-B
Sat 10:07:01 AM 36.7510 -104.4100 299° West 404 465 36,000  Level FlightAware ADS-B
Sat 10:07:34 AM 36.7800 -104.4770 298° West 403 464 36,000  Level FlightAware ADS-B
Sat 10:08:11 AM 36.8120 -104.5520 298° West 404 465 36,000  Level FlightAware ADS-B
Sat 10:08:33 AM 36.8326 -104.5995 298° West 404 465 36,000  Level FlightAware ADS-B (KGUC)
Sat 10:09:07 AM 36.8622 -104.6681 298° West 405 466 36,000  Level FlightAware ADS-B (KGUC)
Sat 10:09:44 AM 36.8958 -104.7460 298° West 406 467 36,000 635 Level FlightAware ADS-B (KGUC)
Sat 10:10:32 AM 36.9377 -104.8434 298° West 401 461 36,900 1,024 Climbing FlightAware ADS-B (KGUC)
Sat 10:11:06 AM 36.9670 -104.9110 298° West 400 460 37,400 878 Climbing FlightAware ADS-B
Sat 10:11:13 AM 36.9738 -104.9272 298° West 400 460 37,500 667 Climbing FlightAware ADS-B (KGUC)
Sat 10:12:00 AM 37.0050 -105.0250 292° West 397 457 38,000 545 Climbing FlightAware ADS-B
Sat 10:12:08 AM 37.0086 -105.0448 283° West 401 461 38,000  Level FlightAware ADS-B (KGUC)
Sat 10:13:05 AM 37.0311 -105.1753 282° West 410 472 38,000  Level FlightAware ADS-B (KGUC)
Sat 10:13:44 AM 37.0455 -105.2589 282° West 406 467 38,000  Level FlightAware ADS-B (KGUC)
Sat 10:14:15 AM 37.0581 -105.3318 282° West 406 467 38,000  Level FlightAware ADS-B (KGUC)
Sat 10:14:51 AM 37.0730 -105.4170 282° West 410 472 38,000  Level FlightAware ADS-B
Sat 10:15:32 AM 37.0890 -105.5130 282° West 414 476 38,000  Level FlightAware ADS-B
Sat 10:15:43 AM 37.0940 -105.5406 283° West 414 476 38,000  Level FlightAware ADS-B (KGUC)
Sat 10:16:34 AM 37.1140 -105.6585 282° West 414 476 38,000  Level FlightAware ADS-B (KGUC)
Sat 10:17:13 AM 37.1296 -105.7511 282° West 412 474 38,000  Level FlightAware ADS-B (KGUC)
Sat 10:17:44 AM 37.1404 -105.8158 282° West 413 475 38,000  Level FlightAware ADS-B (KGUC)
Sat 10:18:26 AM 37.1580 -105.9190 282° West 411 473 38,000  Level FlightAware ADS-B
Sat 10:18:43 AM 37.1647 -105.9604 281° West 411 473 38,000  Level FlightAware ADS-B (KGUC)
Sat 10:19:13 AM 37.1762 -106.0298 282° West 412 474 38,000  Level FlightAware ADS-B (KGUC)
Sat 10:19:45 AM 37.1885 -106.1042 282° West 412 474 38,000  Level FlightAware ADS-B (KGUC)
Sat 10:20:25 AM 37.2031 -106.1932 282° West 412 474 38,000  Level FlightAware ADS-B (KGUC)
Sat 10:20:55 AM 37.2153 -106.2679 282° West 413 475 38,000  Level FlightAware ADS-B (KGUC)
Sat 10:21:25 AM 37.2268 -106.3379 282° West 415 478 38,000  Level FlightAware ADS-B (KGUC)
Sat 10:22:04 AM 37.2418 -106.4302 282° West 413 475 38,000  Level FlightAware ADS-B (KGUC)
Sat 10:22:45 AM 37.2574 -106.5268 282° West 412 474 38,000  Level FlightAware ADS-B (KGUC)
Sat 10:23:22 AM 37.2563 -106.5198 102° East 411 473 38,000  Level FlightAware ADS-B
Sat 10:23:54 AM 37.2833 -106.6883 281° West 411 473 38,000  Level FlightAware ADS-B (KGUC)
Sat 10:24:12 AM 37.2896 -106.7274 281° West 410 472 38,000  Level FlightAware ADS-B
Sat 10:24:17 AM 37.2910 -106.7363 281° West 410 472 38,000  Level FlightAware ADS-B (KGUC)
Sat 10:24:52 AM 37.3051 -106.8227 282° West 409 471 38,000  Level FlightAware ADS-B
Sat 10:25:23 AM 37.3164 -106.8946 281° West 410 472 38,000  Level FlightAware ADS-B
Sat 10:25:53 AM 37.3272 -106.9640 281° West 410 472 38,000  Level FlightAware ADS-B
Sat 10:26:23 AM 37.3380 -107.0331 281° West 410 472 38,000  Level FlightAware ADS-B
Sat 10:26:53 AM 37.3490 -107.1027 281° West 410 472 38,000  Level FlightAware ADS-B
Sat 10:27:27 AM 37.3613 -107.1820 281° West 410 472 38,000  Level FlightAware ADS-B
Sat 10:27:57 AM 37.3722 -107.2522 281° West 411 473 38,000  Level FlightAware ADS-B
Sat 10:28:27 AM 37.3831 -107.3228 281° West 411 473 38,000  Level FlightAware ADS-B
Sat 10:28:57 AM 37.3941 -107.3946 281° West 411 473 38,000  Level FlightAware ADS-B
Sat 10:29:29 AM 37.4052 -107.4667 281° West 412 474 38,000  Level FlightAware ADS-B
Sat 10:29:59 AM 37.4161 -107.5374 281° West 412 474 38,000  Level FlightAware ADS-B
Sat 10:30:39 AM 37.4307 -107.6336 281° West 412 474 38,000  Level FlightAware ADS-B
Sat 10:31:11 AM 37.4413 -107.7056 281° West 412 474 38,000  Level FlightAware ADS-B
Sat 10:31:41 AM 37.4523 -107.7787 281° West 412 474 38,000  Level FlightAware ADS-B
Sat 10:32:12 AM 37.4633 -107.8519 281° West 413 475 38,000  Level FlightAware ADS-B
Sat 10:32:42 AM 37.4740 -107.9232 281° West 414 476 38,000  Level FlightAware ADS-B
Sat 10:33:14 AM 37.4850 -107.9967 281° West 414 476 38,000  Level FlightAware ADS-B
Sat 10:33:45 AM 37.4957 -108.0694 281° West 416 479 38,000  Level FlightAware ADS-B (KGUC)
Sat 10:34:17 AM 37.5071 -108.1470 281° West 417 480 38,000  Level FlightAware ADS-B (KGUC)
Sat 10:34:49 AM 37.5182 -108.2230 280° West 418 481 38,000  Level FlightAware ADS-B
Sat 10:35:20 AM 37.5290 -108.2972 280° West 418 481 38,000  Level FlightAware ADS-B
Sat 10:35:50 AM 37.5392 -108.3680 280° West 419 482 38,000  Level FlightAware ADS-B
Sat 10:36:21 AM 37.5497 -108.4408 280° West 420 483 38,000  Level FlightAware ADS-B (KGUC)
Sat 10:36:52 AM 37.5605 -108.5161 280° West 420 483 38,000  Level FlightAware ADS-B
Sat 10:37:26 AM 37.5726 -108.6007 280° West 421 484 38,000  Level FlightAware ADS-B (KGUC)
Sat 10:37:56 AM 37.5827 -108.6713 280° West 422 486 38,000  Level FlightAware ADS-B (KGUC)
Sat 10:38:26 AM 37.5932 -108.7449 280° West 422 486 38,000  Level FlightAware ADS-B
Sat 10:39:02 AM 37.6052 -108.8311 280° West 421 484 38,000  Level FlightAware ADS-B
Sat 10:39:35 AM 37.6086 -108.8549 280° West 422 486 38,000  Level FlightAware ADS-B
Sat 10:40:06 AM 37.6268 -108.9837 280° West 420 483 38,000  Level FlightAware ADS-B
Sat 10:40:36 AM 37.6369 -109.0571 280° West 419 482 38,000  Level FlightAware ADS-B (KGUC)
Sat 10:41:06 AM 37.6460 -109.1223 280° West 417 480 38,000  Level FlightAware ADS-B
Sat 10:41:38 AM 37.6576 -109.2054 280° West 416 479 38,000  Level FlightAware ADS-B
Sat 10:42:08 AM 37.6670 -109.2742 280° West 415 478 38,000  Level FlightAware ADS-B
Sat 10:42:48 AM 37.6804 -109.3721 280° West 414 476 38,000  Level FlightAware ADS-B
Sat 10:43:28 AM 37.6929 -109.4672 280° West 417 480 38,000  Level FlightAware ADS-B
Sat 10:43:58 AM 37.7027 -109.5411 280° West 419 482 38,000  Level FlightAware ADS-B
Sat 10:44:30 AM 37.7130 -109.6180 280° West 421 484 38,000  Level FlightAware ADS-B
Sat 10:45:00 AM 37.7223 -109.6871 280° West 421 484 38,000  Level FlightAware ADS-B
Sat 10:45:31 AM 37.7327 -109.7645 280° West 421 484 38,000  Level FlightAware ADS-B
Sat 10:46:02 AM 37.7424 -109.8379 280° West 422 486 38,000  Level FlightAware ADS-B
Sat 10:46:35 AM 37.7531 -109.9192 279° West 422 486 38,000  Level FlightAware ADS-B
Sat 10:47:07 AM 37.7632 -109.9979 279° West 423 487 38,000  Level FlightAware ADS-B
Sat 10:47:37 AM 37.7708 -110.0564 279° West 422 486 38,000  Level FlightAware ADS-B (KGUC)
Sat 10:47:52 AM 37.7755 -110.0922 279° West 422 486 38,000  Level FlightAware ADS-B (KGUC)
Sat 10:48:29 AM 37.7891 -110.1972 279° West 422 486 38,000  Level FlightAware ADS-B
Sat 10:49:06 AM 37.8003 -110.2844 279° West 422 486 38,000  Level FlightAware ADS-B (KGUC)
Sat 10:49:47 AM 37.8121 -110.3769 279° West 422 486 38,000  Level FlightAware ADS-B (KGUC)
Sat 10:50:25 AM 37.8247 -110.4776 279° West 421 484 38,000  Level FlightAware ADS-B (KGUC)
Sat 10:51:04 AM 37.8360 -110.5662 279° West 422 486 38,000  Level FlightAware ADS-B
Sat 10:51:38 AM 37.8464 -110.6503 279° West 423 487 38,000  Level FlightAware ADS-B
Sat 10:52:08 AM 37.8551 -110.7205 279° West 425 489 38,000  Level FlightAware ADS-B
Sat 10:52:41 AM 37.8662 -110.8103 279° West 426 490 38,000  Level FlightAware ADS-B
Sat 10:53:28 AM 37.8800 -110.9240 279° West 426 490 38,000  Level FlightAware ADS-B
Sat 10:54:02 AM 37.8900 -111.0070 279° West 427 491 38,000  Level FlightAware ADS-B
Sat 10:54:36 AM 37.9000 -111.0910 279° West 427 491 38,000  Level FlightAware ADS-B
Sat 10:55:13 AM 37.9120 -111.1860 279° West 429 494 38,000  Level FlightAware ADS-B
Sat 10:55:46 AM 37.9210 -111.2650 278° West 430 495 38,000  Level FlightAware ADS-B
Sat 10:56:23 AM 37.9320 -111.3580 279° West 432 497 38,000 -85 Level FlightAware ADS-B
Sat 10:56:57 AM 37.9410 -111.4360 278° West 432 497 37,900 -627 Descending FlightAware ADS-B
Sat 10:57:30 AM 37.9520 -111.5240 279° West 427 491 37,300 -618 Descending FlightAware ADS-B
Sat 10:58:05 AM 37.9600 -111.6000 278° West 428 493 37,200 -892 Descending FlightAware ADS-B
Sat 10:58:44 AM 37.9736 -111.7120 279° West 437 503 36,200 -1,029 Descending FlightAware ADS-B
Sat 10:59:15 AM 37.9820 -111.7900 278° West 432 497 36,000 -148 Descending FlightAware ADS-B
Sat 11:00:05 AM 37.9950 -111.9030 278° West 427 491 36,000  Level FlightAware ADS-B
Sat 11:00:41 AM 38.0030 -111.9790 278° West 427 491 36,000  Level FlightAware ADS-B
Sat 11:01:26 AM 38.0190 -112.1110 279° West 427 491 36,000  Level FlightAware ADS-B
Sat 11:02:00 AM 38.0270 -112.1870 278° West 426 490 36,000  Level FlightAware ADS-B
Sat 11:02:39 AM 38.0350 -112.2700 277° West 426 490 36,000  Level FlightAware ADS-B
Sat 11:03:15 AM 38.0420 -112.3460 277° West 426 490 36,000  Level FlightAware ADS-B
Sat 11:03:51 AM 38.0500 -112.4220 278° West 426 490 36,000  Level FlightAware ADS-B
Sat 11:04:30 AM 38.0580 -112.5040 277° West 426 490 36,000  Level FlightAware ADS-B
Sat 11:05:07 AM 38.0650 -112.5820 277° West 426 490 36,000  Level FlightAware ADS-B
Sat 11:05:43 AM 38.0720 -112.6580 277° West 426 490 36,000  Level FlightAware ADS-B
Sat 11:06:19 AM 38.0800 -112.7340 278° West 426 490 36,000  Level FlightAware ADS-B
Sat 11:06:55 AM 38.0870 -112.8100 277° West 426 490 36,000  Level FlightAware ADS-B
Sat 11:07:32 AM 38.0950 -112.8880 277° West 426 490 36,000  Level FlightAware ADS-B
Sat 11:08:08 AM 38.1020 -112.9640 277° West 426 490 36,000  Level FlightAware ADS-B
Sat 11:08:22 AM 38.1308 -113.1624 281° West 439 505 36,000  Level FlightAware ADS-B
Sat 11:09:04 AM 38.1419 -113.2705 277° West 438 504 36,000  Level FlightAware ADS-B
Sat 11:09:54 AM 38.1240 -113.1880 105° East 426 490 36,000  Level FlightAware ADS-B
Sat 11:10:30 AM 38.1310 -113.2650 277° West 426 490 36,000  Level FlightAware ADS-B
Sat 11:10:42 AM 38.1666 -113.5178 280° West 438 504 36,000  Level FlightAware ADS-B
Sat 11:11:16 AM 38.1746 -113.5982 277° West 439 505 36,000  Level FlightAware ADS-B
Sat 11:13:22 AM 38.1947 -113.9260 275° West 443 510 36,000  Level FlightAware ADS-B
Sat 11:15:51 AM 38.1810 -114.3140 268° West 447 514 36,000  Level FlightAware ADS-B
Sat 11:16:41 AM 38.1760 -114.4250 267° West 448 516 36,000  Level FlightAware ADS-B
Sat 11:17:17 AM 38.1730 -114.5060 267° West 448 516 36,000  Level FlightAware ADS-B
Sat 11:17:53 AM 38.1700 -114.5860 267° West 448 516 36,000  Level FlightAware ADS-B
Sat 11:18:28 AM 38.1670 -114.6650 267° West 448 516 36,000  Level FlightAware ADS-B
Sat 11:19:05 AM 38.1630 -114.7480 267° West 448 516 36,000  Level FlightAware ADS-B
Sat 11:19:41 AM 38.1600 -114.8280 267° West 448 516 36,000  Level FlightAware ADS-B
Sat 11:20:17 AM 38.1560 -114.9090 266° West 448 516 36,000  Level FlightAware ADS-B
Sat 11:20:54 AM 38.1530 -114.9910 267° West 448 516 36,000  Level FlightAware ADS-B
Sat 11:21:31 AM 38.1500 -115.0740 267° West 448 516 36,000  Level FlightAware ADS-B
Sat 11:22:07 AM 38.1460 -115.1550 266° West 448 516 36,000  Level FlightAware ADS-B
Sat 11:22:43 AM 38.1430 -115.2350 267° West 448 516 36,000  Level FlightAware ADS-B
Sat 11:23:19 AM 38.1400 -115.3160 267° West 448 516 36,000  Level FlightAware ADS-B
Sat 11:23:56 AM 38.1360 -115.3990 267° West 448 516 36,000  Level FlightAware ADS-B
Sat 11:24:30 AM 38.1330 -115.4750 267° West 448 516 36,000  Level FlightAware ADS-B
Sat 11:25:06 AM 38.1300 -115.5550 267° West 448 516 36,000  Level FlightAware ADS-B
Sat 11:25:44 AM 38.1260 -115.6400 267° West 448 516 36,000  Level FlightAware ADS-B
Sat 11:26:53 AM 38.1030 -116.0780 266° West 458 527 36,000  Level FlightAware ADS-B
Sat 11:27:28 AM 38.0980 -116.1700 266° West 458 527 36,000  Level FlightAware ADS-B
Sat 11:28:08 AM 38.0930 -116.2760 267° West 456 525 36,000  Level FlightAware ADS-B
Sat 11:28:38 AM 38.0880 -116.3580 266° West 456 525 36,000  Level FlightAware ADS-B
Sat 11:29:19 AM 38.0820 -116.4660 266° West 456 525 36,000  Level FlightAware ADS-B
Sat 11:29:58 AM 38.0770 -116.5690 267° West 455 524 36,000  Level FlightAware ADS-B
Sat 11:30:33 AM 38.0710 -116.6650 265° West 456 525 36,000  Level FlightAware ADS-B
Sat 11:31:08 AM 38.0660 -116.7550 266° West 456 525 36,000  Level FlightAware ADS-B
Sat 11:31:48 AM 38.0600 -116.8640 266° West 457 526 36,000  Level FlightAware ADS-B
Sat 11:32:23 AM 38.0540 -116.9570 265° West 457 526 36,000  Level FlightAware ADS-B
Sat 11:32:58 AM 38.0490 -117.0500 266° West 458 527 36,000  Level FlightAware ADS-B
Sat 11:33:33 AM 38.0430 -117.1440 265° West 459 528 36,000  Level FlightAware ADS-B
Sat 11:34:17 AM 38.0360 -117.2510 265° West 459 528 36,000  Level FlightAware ADS-B
Sat 11:34:48 AM 38.0310 -117.3390 266° West 457 526 36,000  Level FlightAware ADS-B
Sat 11:35:28 AM 38.0240 -117.4520 266° West 453 521 36,000  Level FlightAware ADS-B
Sat 11:35:58 AM 38.0190 -117.5240 265° West 451 519 36,000  Level FlightAware ADS-B
Sat 11:36:33 AM 38.0130 -117.6240 266° West 449 517 36,000  Level FlightAware ADS-B
Sat 11:37:17 AM 38.0070 -117.7150 265° West 449 517 36,000  Level FlightAware ADS-B
Sat 11:37:48 AM 37.9990 -117.8160 264° West 585 673 36,000  Level FlightAware ADS-B
Sat 11:38:20 AM 37.9910 -117.8890 262° West 447 514 36,000  Level FlightAware ADS-B
Sat 11:39:12 AM 37.9760 -118.0230 262° West 447 514 36,000  Level FlightAware ADS-B
Sat 11:39:50 AM 37.9670 -118.1070 262° West 447 514 36,000  Level FlightAware ADS-B
Sat 11:40:26 AM 37.9580 -118.1870 262° West 447 514 36,000  Level FlightAware ADS-B
Sat 11:41:03 AM 37.9490 -118.2680 262° West 447 514 36,000  Level FlightAware ADS-B
Sat 11:41:39 AM 37.9400 -118.3480 262° West 447 514 36,000  Level FlightAware ADS-B
Sat 11:42:15 AM 37.9320 -118.4270 263° West 447 514 36,000  Level FlightAware ADS-B
Sat 11:42:51 AM 37.9140 -118.6000 263° West 440 506 36,000  Level FlightAware ADS-B
Sat 11:43:28 AM 37.9040 -118.6940 262° West 438 504 36,000 -164 Level FlightAware ADS-B
Sat 11:44:04 AM 37.8930 -118.7860 261° West 436 502 35,800 -600 Descending FlightAware ADS-B
Sat 11:44:38 AM 37.8840 -118.8710 262° West 439 505 35,300 -971 Descending FlightAware ADS-B
Sat 11:45:12 AM 37.8740 -118.9580 262° West 444 511 34,700 -968 Descending FlightAware ADS-B
Sat 11:45:40 AM 37.8652 -119.0311 261° West 441 507 34,300 -931 Descending FlightAware ADS-B
Sat 11:46:10 AM 37.8569 -119.1045 262° West 439 505 33,800 -975 Descending FlightAware ADS-B
Sat 11:47:00 AM 37.8420 -119.2350 262° West 447 514 33,000 -977 Descending FlightAware ADS-B
Sat 11:47:36 AM 37.8310 -119.3290 262° West 446 513 32,400 -870 Descending FlightAware ADS-B
Sat 11:48:09 AM 37.8210 -119.4110 261° West 443 510 32,000 -364 Descending FlightAware ADS-B
Sat 11:48:42 AM 37.8110 -119.4980 262° West 443 510 32,000  Level FlightAware ADS-B
Sat 11:49:16 AM 37.8000 -119.5860 261° West 443 510 32,000  Level FlightAware ADS-B
Sat 11:49:54 AM 37.7880 -119.6820 261° West 443 510 32,000  Level FlightAware ADS-B
Sat 11:50:30 AM 37.7770 -119.7740 261° West 445 512 32,000  Level FlightAware ADS-B
Sat 11:51:07 AM 37.7660 -119.8680 262° West 445 512 32,000  Level FlightAware ADS-B
Sat 11:51:38 AM 37.7560 -119.9480 261° West 446 513 32,000  Level FlightAware ADS-B
Sat 11:52:14 AM 37.7450 -120.0400 261° West 445 512 32,000  Level FlightAware ADS-B
Sat 11:52:50 AM 37.7340 -120.1260 261° West 445 512 32,000 -333 Level FlightAware ADS-B
Sat 11:53:26 AM 37.7220 -120.2250 261° West 442 509 31,600 -1,059 Descending FlightAware ADS-B
Sat 11:53:58 AM 37.7120 -120.3040 261° West 430 495 30,800 -1,886 Descending FlightAware ADS-B
Sat 11:54:36 AM 37.7000 -120.3970 261° West 420 483 29,400 -2,167 Descending FlightAware ADS-B
Sat 11:55:10 AM 37.6900 -120.4790 261° West 413 475 28,200 -2,206 Descending FlightAware ADS-B
Sat 11:55:44 AM 37.6790 -120.5610 260° West 407 468 26,900 -2,113 Descending FlightAware ADS-B
Sat 11:56:21 AM 37.6690 -120.6390 261° West 401 461 25,700 -2,143 Descending FlightAware ADS-B
Sat 11:56:54 AM 37.6580 -120.7200 260° West 392 451 24,400 -2,149 Descending FlightAware ADS-B
Sat 11:57:28 AM 37.6490 -120.7970 262° West 386 444 23,300 -2,057 Descending FlightAware ADS-B
Sat 11:58:04 AM 37.6380 -120.8760 260° West 379 436 22,000 -2,027 Descending FlightAware ADS-B
Sat 11:58:42 AM 37.6270 -120.9570 260° West 371 427 20,800 -1,714 Descending FlightAware ADS-B
Sat 11:59:14 AM 37.6190 -121.0250 262° West 360 414 20,000 -2,060 Descending FlightAware ADS-B
Sat 11:59:49 AM 37.6120 -121.0960 263° West 363 418 18,500 -2,700 Descending FlightAware ADS-B
Sat 12:00:17 PM 37.6050 -121.1570 262° West 17,100 -2,800 Descending FlightAware ADS-B
Sat 12:00:34 PM 37.6009 -121.1940 262° West 370 426 16,400 -2,235 Descending FlightAware ADS-B
Sat 12:01:08 PM 37.5927 -121.2650 262° West 366 421 15,200 -2,063 Descending FlightAware ADS-B
Sat 12:01:38 PM 37.5854 -121.3280 262° West 358 412 14,200 -2,200 Descending FlightAware ADS-B
Sat 12:02:08 PM 37.5782 -121.3890 262° West 350 403 13,000 -2,361 Descending FlightAware ADS-B
Sat 12:02:39 PM 37.5712 -121.4500 262° West 344 396 11,800 -1,574 Descending FlightAware ADS-B
Sat 12:03:09 PM 37.5645 -121.5080 262° West 324 373 11,400 -700 Descending FlightAware ADS-B
Sat 12:03:39 PM 37.5583 -121.5610 262° West 301 346 11,100 -492 Descending FlightAware ADS-B
Sat 12:04:10 PM 37.5521 -121.6140 262° West 288 331 10,900 -600 Descending FlightAware ADS-B
Sat 12:04:19 PM 37.5497 -121.6290 259° West 286 329 10,700 -1,317 Descending FlightAware ADS-B
Sat 12:04:51 PM 37.5376 -121.6800 253° West 285 328 10,000 -1,469 Descending FlightAware ADS-B
Sat 12:05:08 PM 37.5313 -121.7070 254° West 284 327 9,500 -1,667 Descending FlightAware ADS-B
Sat 12:05:27 PM 37.5242 -121.7360 253° West 285 328 9,000 -1,412 Descending FlightAware ADS-B
Sat 12:05:42 PM 37.5185 -121.7600 253° West 285 328 8,700 -1,200 Descending FlightAware ADS-B
Sat 12:05:57 PM 37.5127 -121.7840 253° West 281 323 8,400 -774 Descending FlightAware ADS-B
Sat 12:06:13 PM 37.5070 -121.8080 253° West 271 312 8,300 -387 Descending FlightAware ADS-B
Sat 12:06:28 PM 37.5017 -121.8300 253° West 264 304 8,200 -387 Descending FlightAware ADS-B
Sat 12:06:44 PM 37.4962 -121.8530 253° West 258 297 8,100 -462 Descending FlightAware ADS-B
Sat 12:06:54 PM 37.4930 -121.8670 254° West 254 292 8,000 -857 Descending FlightAware ADS-B
Sat 12:06:58 PM 37.4920 -121.8740 260° West 251 289 7,900 -750 Descending FlightAware ADS-B
Sat 12:07:02 PM 37.4914 -121.8790 261° West 249 287 7,900 -857 Level FlightAware ADS-B
Sat 12:07:05 PM 37.4911 -121.8840 266° West 249 287 7,800 -2,000 Descending FlightAware ADS-B
Sat 12:07:08 PM 37.4910 -121.8890 269° West 248 285 7,700 -1,500 Descending FlightAware ADS-B
Sat 12:07:13 PM 37.4911 -121.8950 271° West 248 285 7,600 -1,800 Descending FlightAware ADS-B
Sat 12:07:28 PM 37.4918 -121.9170 272° West 248 285 7,100 -1,800 Descending FlightAware ADS-B
Sat 12:07:43 PM 37.4925 -121.9390 272° West 242 278 6,700 -1,548 Descending FlightAware ADS-B
Sat 12:07:59 PM 37.4930 -121.9600 272° West 239 275 6,300 -1,385 Descending FlightAware ADS-B
Sat 12:08:09 PM 37.4935 -121.9740 273° West 238 274 6,100 -1,286 Descending FlightAware ADS-B
Sat 12:08:13 PM 37.4939 -121.9790 276° West 238 274 6,000 -1,800 Descending FlightAware ADS-B
Sat 12:08:19 PM 37.4951 -121.9870 281° West 237 273 5,800 -1,800 Descending FlightAware ADS-B
Sat 12:08:23 PM 37.4962 -121.9920 285° West 235 270 5,700 -1,091 Descending FlightAware ADS-B
Sat 12:08:41 PM 37.5032 -122.0150 291° West 232 267 5,400 -1,000 Descending FlightAware ADS-B
Sat 12:08:59 PM 37.5106 -122.0370 293° West 228 262 5,100 -1,111 Descending FlightAware ADS-B
Sat 12:09:08 PM 37.5140 -122.0480 291° West 227 261 4,900 -1,250 Descending FlightAware ADS-B
Sat 12:09:23 PM 37.5201 -122.0670 292° West 222 255 4,600 -1,200 Descending FlightAware ADS-B
Sat 12:09:38 PM 37.5258 -122.0850 292° West 218 251 4,300 -1,034 Descending FlightAware ADS-B
Sat 12:09:52 PM 37.5310 -122.1010 292° West 211 243 4,100 -1,029 Descending FlightAware ADS-B
Sat 12:10:13 PM 37.5387 -122.1240 293° West 205 236 3,700 -1,135 Descending FlightAware ADS-B
Sat 12:10:29 PM 37.5445 -122.1410 293° West 204 235 3,400 -1,161 Descending FlightAware ADS-B
Sat 12:10:44 PM 37.5500 -122.1580 292° West 204 235 3,100 -968 Descending FlightAware ADS-B
Sat 12:11:00 PM 37.5555 -122.1750 292° West 201 231 2,900 -938 Descending FlightAware ADS-B
Sat 12:11:16 PM 37.5610 -122.1930 291° West 196 226 2,600 -1,161 Descending FlightAware ADS-B
Sat 12:11:31 PM 37.5661 -122.2090 292° West 196 226 2,300 -968 Descending FlightAware ADS-B
Sat 12:11:47 PM 37.5715 -122.2250 293° West 194 223 2,100 -828 Descending FlightAware ADS-B
Sat 12:12:00 PM 37.5755 -122.2380 291° West 187 215 1,900 -900 Descending FlightAware ADS-B
Sat 12:12:07 PM 37.5772 -122.2460 285° West 184 212 1,800 -1,091 Descending FlightAware ADS-B
Sat 12:12:22 PM 37.5802 -122.2610 284° West 176 203 1,500 -960 Descending FlightAware ADS-B
Sat 12:12:32 PM 37.5822 -122.2710 284° West 168 193 1,400 -692 Descending FlightAware ADS-B
Sat 12:12:48 PM 37.5849 -122.2850 284° West 160 184 1,200 -900 Descending FlightAware ADS-B
Sat 12:12:52 PM 37.5857 -122.2890 284° West 159 183 1,100 -1,500 Descending FlightAware ADS-B
Sat 12:12:56 PM 37.5867 -122.2920 293° West 157 181 1,000 -750 Descending FlightAware ADS-B
Sat 12:13:00 PM 37.5877 -122.2950 293° West 156 180 1,000 -571 Level FlightAware ADS-B
Sat 12:13:17 PM 37.5934 -122.3100 296° West 154 177 800 -857 Descending FlightAware ADS-B
Sat 12:13:35 PM 37.5992 -122.3230 299° West 153 176 500 -909 Descending FlightAware ADS-B
Sat 12:13:50 PM 37.6042 -122.3350 298° West 151 174 300 -828 Descending FlightAware ADS-B
Sat 12:14:04 PM 37.6089 -122.3460 298° West 151 174 100 -240 Descending FlightAware ADS-B
Sat 12:14:40 PM 37.6203 -122.3742 298° West 165 190 100  Level Oakland Center

Login

Don't have an account? Register now (free) for customized features, flight alerts, and more!